Time;durP1;ratioP1;P1;durP2;ratioP2;P2;SDS_P1;SDS_P2;PMS_P1;PMS_P2;Temp;Humidity;BMP_temperature;BMP_pressure;BME280_temperature;BME280_humidity;BME280_pressure;Samples;Min_cycle;Max_cycle;Signal;HPM_P1;HPM_P2
2021/01/23 00:00:29;;;;;;;15.80;9.38;;;;;;;2.22;66.51;99923.45;1771506;79;21380;-59
2021/01/23 00:02:56;;;;;;;15.05;9.23;;;;;;;2.09;66.57;99923.70;1764933;79;21165;-59
2021/01/23 00:05:25;;;;;;;18.48;11.18;;;;;;;1.97;66.69;99930.38;1756895;79;21189;-60
2021/01/23 00:07:52;;;;;;;17.92;10.15;;;;;;;1.87;66.81;99931.77;1764866;79;21145;-59
2021/01/23 00:10:21;;;;;;;16.85;9.65;;;;;;;1.77;66.69;99936.58;1767718;81;21162;-59
2021/01/23 00:12:50;;;;;;;16.62;9.70;;;;;;;1.71;66.58;99944.66;1771676;79;21482;-59
2021/01/23 00:15:19;;;;;;;16.42;9.75;;;;;;;1.61;66.65;99945.58;1744593;80;21174;-59
2021/01/23 00:17:47;;;;;;;17.57;10.28;;;;;;;1.54;66.60;99937.72;1760943;79;21169;-59
2021/01/23 00:20:16;;;;;;;14.47;9.98;;;;;;;1.48;66.61;99927.21;1771103;79;21129;-59
2021/01/23 00:22:43;;;;;;;17.00;9.10;;;;;;;1.43;66.65;99925.74;1778666;79;21165;-60
2021/01/23 00:25:11;;;;;;;15.93;11.08;;;;;;;1.35;66.59;99929.20;1760481;79;21724;-59
2021/01/23 00:27:40;;;;;;;16.20;9.50;;;;;;;1.30;66.49;99923.77;1775256;79;21515;-59
2021/01/23 00:30:09;;;;;;;17.23;9.43;;;;;;;1.22;66.57;99919.88;1765492;79;21613;-59
2021/01/23 00:32:38;;;;;;;17.07;9.03;;;;;;;1.20;67.12;99914.77;1758939;79;21185;-59
2021/01/23 00:35:08;;;;;;;15.08;8.38;;;;;;;1.18;67.37;99907.96;1775173;79;21153;-60
2021/01/23 00:37:36;;;;;;;17.73;9.38;;;;;;;1.21;67.32;99912.56;1754703;79;21378;-60
2021/01/23 00:40:06;;;;;;;13.15;8.45;;;;;;;1.18;67.22;99919.63;1764120;79;21496;-60
2021/01/23 00:42:34;;;;;;;15.45;9.78;;;;;;;1.19;67.34;99923.91;1765585;79;21182;-59
2021/01/23 00:45:03;;;;;;;13.58;8.80;;;;;;;1.18;67.26;99921.78;1752340;81;21161;-59
2021/01/23 00:47:31;;;;;;;15.45;9.63;;;;;;;1.19;67.13;99922.61;1762148;79;21204;-60
2021/01/23 00:49:59;;;;;;;19.45;11.08;;;;;;;1.18;67.18;99919.19;1751773;79;21394;-60
2021/01/23 00:52:28;;;;;;;15.23;9.38;;;;;;;1.21;67.41;99913.86;1764801;79;21239;-60
2021/01/23 00:54:56;;;;;;;17.85;9.90;;;;;;;1.24;67.39;99918.87;1774127;79;21507;-60
2021/01/23 00:57:23;;;;;;;20.68;9.40;;;;;;;1.29;67.32;99921.24;1770328;79;21130;-60
2021/01/23 00:59:52;;;;;;;13.08;8.10;;;;;;;1.26;67.17;99912.31;1755938;79;21651;-60
2021/01/23 01:02:20;;;;;;;14.85;8.55;;;;;;;1.28;66.84;99907.92;1778456;79;22053;-60
2021/01/23 01:04:48;;;;;;;14.83;9.40;;;;;;;1.25;66.63;99910.66;1765852;79;21759;-60
2021/01/23 01:07:16;;;;;;;17.55;9.80;;;;;;;1.24;66.36;99905.91;1752786;81;21599;-60
2021/01/23 01:09:44;;;;;;;16.48;8.90;;;;;;;1.17;66.43;99907.59;1755581;80;21449;-60
2021/01/23 01:12:13;;;;;;;15.28;9.68;;;;;;;1.16;66.53;99904.61;1756608;80;21150;-60
2021/01/23 01:14:41;;;;;;;14.45;9.33;;;;;;;1.13;66.86;99904.76;1755237;81;21490;-60
2021/01/23 01:17:08;;;;;;;18.02;9.75;;;;;;;1.16;66.87;99909.36;1755552;81;21173;-60
2021/01/23 01:19:37;;;;;;;16.48;8.68;;;;;;;1.11;67.01;99910.05;1727640;81;21210;-60
2021/01/23 01:22:05;;;;;;;16.05;8.28;;;;;;;1.13;66.90;99910.80;1755743;80;21158;-61
2021/01/23 01:24:32;;;;;;;18.17;10.32;;;;;;;1.06;66.59;99905.08;1753847;81;21601;-61
2021/01/23 01:27:00;;;;;;;17.05;10.18;;;;;;;1.05;66.45;99913.75;1746005;80;22873;-60
2021/01/23 01:29:28;;;;;;;16.57;10.13;;;;;;;1.01;66.60;99917.84;1760758;80;21174;-61
2021/01/23 01:31:56;;;;;;;18.42;9.90;;;;;;;0.99;66.74;99912.73;1753654;80;21201;-61
2021/01/23 01:34:23;;;;;;;19.73;10.18;;;;;;;0.98;66.71;99925.80;1755964;81;21173;-61
2021/01/23 01:36:51;;;;;;;18.55;10.65;;;;;;;1.00;66.77;99917.48;1749004;81;21523;-61
2021/01/23 01:39:18;;;;;;;15.48;9.88;;;;;;;0.97;66.56;99921.52;1732181;81;21201;-61
2021/01/23 01:41:46;;;;;;;13.53;8.38;;;;;;;0.97;66.67;99925.40;1753301;80;21176;-61
2021/01/23 01:44:13;;;;;;;16.82;9.93;;;;;;;0.94;66.94;99916.00;1755970;80;21174;-61
2021/01/23 01:46:42;;;;;;;15.70;10.50;;;;;;;0.96;66.90;99910.31;1752641;81;21767;-61
2021/01/23 01:49:10;;;;;;;20.25;9.53;;;;;;;0.95;66.80;99915.11;1739814;81;21186;-61
2021/01/23 01:51:37;;;;;;;16.42;9.88;;;;;;;0.97;66.70;99909.86;1733368;81;22382;-61
2021/01/23 01:54:05;;;;;;;16.57;9.65;;;;;;;0.96;66.56;99907.73;1745174;80;21136;-61
2021/01/23 01:56:32;;;;;;;15.75;9.65;;;;;;;0.94;66.44;99917.30;1740815;80;21121;-61
2021/01/23 01:59:02;;;;;;;14.18;9.50;;;;;;;0.95;66.46;99928.52;1727957;81;21191;-62
2021/01/23 02:01:31;;;;;;;17.62;10.38;;;;;;;0.89;66.91;99921.43;1735560;80;21207;-62
2021/01/23 02:04:14;;;;;;;14.43;9.80;;;;;;;0.88;67.12;99917.61;1730786;81;21376;-61
2021/01/23 02:07:08;;;;;;;15.65;8.93;;;;;;;0.89;67.32;99921.86;1763013;79;21221;-61
2021/01/23 02:09:43;;;;;;;17.27;9.80;;;;;;;0.93;66.96;99910.00;1715563;81;21238;-62
2021/01/23 02:12:42;;;;;;;17.55;10.05;;;;;;;0.92;66.77;99910.92;1775684;79;21135;-61
2021/01/23 02:15:18;;;;;;;12.95;9.40;;;;;;;0.92;66.72;99907.04;1762951;79;21177;-61
2021/01/23 02:17:52;;;;;;;;;;;;;;;0.90;66.60;99904.95;1785327;79;21357;-62
2021/01/23 02:20:55;;;;;;;12.90;9.43;;;;;;;0.86;66.56;99907.78;1772777;79;20257;-62
2021/01/23 02:23:32;;;;;;;20.15;9.43;;;;;;;0.83;66.99;99908.76;1771816;79;21599;-62
2021/01/23 02:26:25;;;;;;;14.65;9.58;;;;;;;0.83;67.10;99904.88;1784359;79;21153;-62
2021/01/23 02:29:14;;;;;;;17.17;10.05;;;;;;;0.86;67.47;99911.20;1760627;80;21131;-61
2021/01/23 02:31:45;;;;;;;22.40;9.08;;;;;;;0.92;67.76;99910.92;1776132;79;21186;-61
2021/01/23 02:34:17;;;;;;;14.07;8.75;;;;;;;1.01;68.09;99924.33;1759302;79;21241;-61
2021/01/23 02:36:44;;;;;;;15.23;9.75;;;;;;;1.00;68.02;99921.38;1775034;79;22436;-62
2021/01/23 02:39:13;;;;;;;15.15;8.88;;;;;;;0.99;68.21;99924.86;1745858;80;21205;-61
2021/01/23 02:41:43;;;;;;;16.85;9.55;;;;;;;1.03;68.16;99929.00;1778259;79;21676;-61
2021/01/23 02:44:11;;;;;;;18.95;9.65;;;;;;;1.05;68.13;99921.52;1776905;80;21239;-62
2021/01/23 02:46:38;;;;;;;18.23;11.00;;;;;;;1.12;67.84;99911.70;1779320;79;21202;-62
2021/01/23 02:49:06;;;;;;;16.55;10.68;;;;;;;1.11;67.57;99906.16;1782858;79;21108;-62
2021/01/23 02:52:02;;;;;;;21.17;11.43;;;;;;;1.11;67.71;99911.34;1791441;79;21185;-61
2021/01/23 02:55:04;;;;;;;16.17;9.88;;;;;;;1.11;68.02;99908.75;1769267;80;21137;-62
2021/01/23 02:57:32;;;;;;;17.60;9.80;;;;;;;1.19;68.33;99909.66;1773394;78;21372;-62
2021/01/23 03:00:06;;;;;;;18.02;9.93;;;;;;;1.25;68.35;99908.89;1781973;79;21153;-62
2021/01/23 03:02:40;;;;;;;14.68;8.93;;;;;;;1.28;68.26;99911.81;1788837;79;21577;-60
2021/01/23 03:05:08;;;;;;;13.65;9.45;;;;;;;1.31;68.18;99909.04;1742946;80;21141;-60
2021/01/23 03:07:36;;;;;;;13.83;8.68;;;;;;;1.30;68.00;99920.34;1760930;79;21352;-60
2021/01/23 03:10:10;;;;;;;14.60;9.18;;;;;;;1.29;67.86;99927.73;1777872;80;21207;-60
2021/01/23 03:12:37;;;;;;;13.32;8.23;;;;;;;1.24;68.14;99926.64;1778475;79;21628;-60
2021/01/23 03:15:06;;;;;;;15.32;9.40;;;;;;;1.24;68.17;99935.72;1773404;79;21192;-60
2021/01/23 03:17:35;;;;;;;20.27;10.30;;;;;;;1.21;68.12;99948.85;1762534;79;21383;-60
2021/01/23 03:20:05;;;;;;;15.58;9.75;;;;;;;1.18;67.91;99954.61;1771879;79;21142;-60
2021/01/23 03:22:33;;;;;;;14.98;9.18;;;;;;;1.09;67.94;99942.94;1776187;79;21728;-61
2021/01/23 03:25:02;;;;;;;18.92;11.35;;;;;;;1.06;67.75;99943.08;1764691;80;21222;-61
2021/01/23 03:27:29;;;;;;;14.43;9.73;;;;;;;1.06;67.79;99925.80;1758403;79;21216;-62
2021/01/23 03:29:57;;;;;;;19.40;10.75;;;;;;;1.07;67.57;99922.28;1757952;80;21110;-62
2021/01/23 03:32:24;;;;;;;16.35;11.00;;;;;;;1.06;67.36;99919.76;1776275;79;21153;-62
2021/01/23 03:34:52;;;;;;;17.20;10.38;;;;;;;1.06;67.40;99921.91;1758798;80;21451;-62
2021/01/23 03:37:20;;;;;;;17.85;10.38;;;;;;;1.04;67.22;99932.81;1767283;79;21197;-62
2021/01/23 03:39:48;;;;;;;20.97;11.48;;;;;;;1.01;66.98;99937.28;1764764;79;21186;-61
2021/01/23 03:42:16;;;;;;;18.02;9.18;;;;;;;0.95;67.51;99941.02;1776936;79;21458;-62
2021/01/23 03:44:44;;;;;;;18.50;11.60;;;;;;;0.96;67.70;99935.36;1787707;79;21165;-62
2021/01/23 03:47:11;;;;;;;21.75;11.25;;;;;;;0.96;67.50;99939.25;1780333;79;21644;-62
2021/01/23 03:49:41;;;;;;;21.00;11.15;;;;;;;0.91;67.40;99940.32;1777121;80;21153;-63
2021/01/23 03:52:08;;;;;;;25.40;12.75;;;;;;;0.90;67.41;99926.97;1776886;79;21174;-62
2021/01/23 03:54:40;;;;;;;20.25;12.25;;;;;;;0.87;67.42;99935.34;1774119;79;21209;-61
2021/01/23 03:57:10;;;;;;;17.23;11.08;;;;;;;0.89;67.39;99922.72;1750066;80;21113;-62
2021/01/23 03:59:38;;;;;;;16.07;10.43;;;;;;;0.87;67.31;99918.52;1769561;80;21204;-62
2021/01/23 04:02:05;;;;;;;19.55;11.38;;;;;;;0.86;67.16;99924.16;1777042;79;21187;-61
2021/01/23 04:04:33;;;;;;;18.75;11.57;;;;;;;0.87;67.41;99918.52;1764236;80;21181;-64
2021/01/23 04:07:01;;;;;;;17.12;10.95;;;;;;;0.95;67.31;99918.16;1758269;79;21452;-64
2021/01/23 04:09:30;;;;;;;16.90;9.45;;;;;;;0.93;66.89;99919.06;1753182;81;21211;-73
2021/01/23 04:11:57;;;;;;;14.70;10.30;;;;;;;0.92;67.10;99921.28;1752329;80;21387;-64
2021/01/23 04:14:25;;;;;;;15.00;9.73;;;;;;;0.87;67.51;99928.41;1738960;81;21178;-59
2021/01/23 04:16:52;;;;;;;15.25;10.38;;;;;;;0.88;67.45;99925.38;1760368;80;21211;-64
2021/01/23 04:19:20;;;;;;;15.23;9.50;;;;;;;0.87;67.32;99928.41;1747164;80;21176;-63
2021/01/23 04:21:47;;;;;;;19.30;9.65;;;;;;;0.86;67.33;99933.22;1744777;80;21162;-62
2021/01/23 04:24:15;;;;;;;18.02;10.18;;;;;;;0.85;67.45;99925.52;1741771;81;21569;-62
2021/01/23 04:26:43;;;;;;;16.27;9.60;;;;;;;0.83;67.47;99929.48;1741365;80;21169;-64
2021/01/23 04:29:11;;;;;;;17.32;9.50;;;;;;;0.85;67.97;99929.41;1732763;80;21096;-63
2021/01/23 04:31:38;;;;;;;16.25;9.83;;;;;;;0.85;67.96;99926.81;1753979;80;21175;-64
2021/01/23 04:34:06;;;;;;;15.13;9.95;;;;;;;0.87;67.71;99921.94;1751491;80;21563;-63
2021/01/23 04:36:33;;;;;;;18.10;11.05;;;;;;;0.89;67.45;99914.09;1742158;80;21485;-64
2021/01/23 04:39:01;;;;;;;19.32;10.50;;;;;;;0.87;67.10;99912.86;1755463;80;21135;-62
2021/01/23 04:41:29;;;;;;;15.60;9.35;;;;;;;0.85;67.46;99921.17;1753513;80;21104;-63
2021/01/23 04:43:58;;;;;;;15.98;9.73;;;;;;;0.87;67.40;99929.70;1735480;81;21167;-62
2021/01/23 04:46:26;;;;;;;20.00;9.20;;;;;;;0.86;67.34;99924.63;1719682;82;21518;-62
2021/01/23 04:48:53;;;;;;;16.57;11.25;;;;;;;0.84;67.26;99934.19;1754869;80;21375;-62
2021/01/23 04:51:21;;;;;;;15.30;9.68;;;;;;;0.80;67.81;99929.62;1749530;80;21147;-62
2021/01/23 04:53:49;;;;;;;17.73;10.98;;;;;;;0.80;67.91;99936.55;1750512;80;21168;-65
2021/01/23 04:56:18;;;;;;;18.52;11.65;;;;;;;0.77;68.04;99932.34;1725801;81;21174;-63
2021/01/23 04:58:45;;;;;;;18.67;11.55;;;;;;;0.74;68.18;99935.94;1751416;80;21567;-62
2021/01/23 05:01:14;;;;;;;14.87;9.43;;;;;;;0.71;67.96;99931.36;1749445;80;21805;-62
2021/01/23 05:04:03;;;;;;;20.43;11.35;;;;;;;0.71;67.70;99927.47;1756749;80;21164;-62
2021/01/23 05:06:31;;;;;;;18.48;11.75;;;;;;;0.70;67.57;99925.31;1754078;79;21214;-62
2021/01/23 05:08:58;;;;;;;17.80;10.93;;;;;;;0.67;67.59;99931.09;1775641;79;21220;-62
2021/01/23 05:11:49;;;;;;;20.25;11.28;;;;;;;0.64;67.45;99936.41;1752279;79;22284;-63
2021/01/23 05:14:17;;;;;;;18.55;11.20;;;;;;;0.60;67.31;99933.13;1784248;78;21203;-63
2021/01/23 05:16:45;;;;;;;18.35;10.70;;;;;;;0.60;67.39;99933.59;1771726;79;21193;-65
2021/01/23 05:19:13;;;;;;;17.45;11.12;;;;;;;0.60;67.49;99945.24;1779714;79;21224;-65
2021/01/23 05:21:41;;;;;;;23.40;12.37;;;;;;;0.63;67.79;99951.58;1739493;79;21583;-64
2021/01/23 05:24:12;;;;;;;19.27;10.48;;;;;;;0.66;67.68;99955.33;1783728;79;21251;-64
2021/01/23 05:26:40;;;;;;;16.25;10.32;;;;;;;0.62;67.21;99957.66;1770392;79;21357;-63
2021/01/23 05:29:13;;;;;;;14.43;9.33;;;;;;;0.53;67.73;99963.63;1774376;79;21213;-63
2021/01/23 05:31:42;;;;;;;16.02;9.63;;;;;;;0.45;67.89;99963.14;1785965;79;21631;-62
2021/01/23 05:34:28;;;;;;;21.37;12.03;;;;;;;0.36;68.21;99959.69;1772410;79;21216;-64
2021/01/23 05:36:56;;;;;;;;;;;;;;;0.31;68.20;99947.41;1791468;79;21222;-64
2021/01/23 05:40:03;;;;;;;18.60;12.80;;;;;;;0.31;67.74;99943.06;1786519;79;21209;-65
2021/01/23 05:42:44;;;;;;;16.07;10.60;;;;;;;0.23;67.75;99948.20;1757731;79;21536;-64
2021/01/23 05:45:14;;;;;;;17.02;11.30;;;;;;;0.18;67.85;99940.20;1753497;80;21159;-63
2021/01/23 05:47:41;;;;;;;15.78;11.12;;;;;;;0.20;67.66;99940.56;1753969;80;21258;-68
2021/01/23 05:50:10;;;;;;;19.82;12.10;;;;;;;0.16;67.40;99941.98;1759236;80;21780;-67
2021/01/23 05:52:38;;;;;;;20.55;11.83;;;;;;;0.16;67.37;99945.86;1758072;79;21654;-65
2021/01/23 05:55:08;;;;;;;23.77;13.25;;;;;;;0.16;67.47;99943.28;1780968;78;21191;-66
2021/01/23 05:57:36;;;;;;;18.48;11.33;;;;;;;0.18;67.47;99942.78;1750702;80;21202;-67
2021/01/23 06:00:07;;;;;;;22.77;12.23;;;;;;;0.21;67.59;99953.90;1791039;79;21222;-66
2021/01/23 06:02:35;;;;;;;18.67;10.85;;;;;;;0.22;67.29;99947.80;1788678;79;21184;-66
2021/01/23 06:05:05;;;;;;;18.98;11.63;;;;;;;0.22;67.17;99946.07;1763976;79;21401;-68
2021/01/23 06:07:47;;;;;;;24.00;11.95;;;;;;;0.25;67.25;99951.55;1789188;78;21128;-64
2021/01/23 06:10:32;;;;;;;21.70;11.45;;;;;;;0.30;66.97;99956.06;1785840;79;21144;-66
2021/01/23 06:13:02;;;;;;;26.82;15.23;;;;;;;0.31;67.05;99953.88;1788642;78;21141;-65
2021/01/23 06:15:40;;;;;;;25.45;16.02;;;;;;;0.35;67.29;99956.70;1777734;78;21199;-67
2021/01/23 06:18:24;;;;;;;29.23;14.25;;;;;;;0.38;67.10;99952.68;1757881;79;21457;-66
2021/01/23 06:20:58;;;;;;;22.73;13.83;;;;;;;0.39;67.09;99966.02;1777790;78;21238;-66
2021/01/23 06:23:54;;;;;;;20.45;11.45;;;;;;;0.40;66.92;99956.03;1779760;78;21183;-64
2021/01/23 06:26:21;;;;;;;20.65;11.57;;;;;;;0.40;66.81;99957.80;1784533;78;21594;-65
2021/01/23 06:28:50;;;;;;;23.10;12.80;;;;;;;0.36;66.99;99962.27;1783599;78;21228;-66
2021/01/23 06:31:32;;;;;;;19.42;13.10;;;;;;;0.36;67.22;99960.98;1753373;80;21597;-64
2021/01/23 06:34:00;;;;;;;24.32;14.43;;;;;;;0.38;67.39;99960.45;1789487;78;21642;-64
2021/01/23 06:36:29;;;;;;;21.45;14.05;;;;;;;0.45;67.31;99963.14;1755136;80;21226;-66
2021/01/23 06:39:10;;;;;;;25.10;14.30;;;;;;;0.47;67.40;99961.78;1756445;80;21831;-65
2021/01/23 06:41:38;;;;;;;21.20;13.90;;;;;;;0.52;67.57;99958.52;1784693;78;21201;-66
2021/01/23 06:44:18;;;;;;;21.93;14.00;;;;;;;0.56;67.72;99960.08;1783959;78;21428;-62
2021/01/23 06:46:55;;;;;;;25.10;13.68;;;;;;;0.61;67.56;99959.88;1783148;78;21198;-62
2021/01/23 06:49:25;;;;;;;23.40;13.55;;;;;;;0.64;67.46;99946.77;1786469;78;21193;-64
2021/01/23 06:52:05;;;;;;;19.77;13.28;;;;;;;0.65;67.27;99955.77;1784934;78;21902;-66
2021/01/23 06:54:35;;;;;;;19.82;12.43;;;;;;;0.70;67.03;99956.86;1780665;78;22343;-62
2021/01/23 06:57:05;;;;;;;24.07;14.63;;;;;;;0.73;67.39;99952.84;1789113;78;21341;-67
2021/01/23 06:59:36;;;;;;;22.95;12.95;;;;;;;0.83;67.53;99950.20;1770420;78;21184;-68
2021/01/23 07:02:14;;;;;;;20.50;14.10;;;;;;;0.91;67.36;99956.33;1781594;78;21160;-68
2021/01/23 07:04:47;;;;;;;19.70;12.23;;;;;;;1.01;67.48;99958.88;1792577;78;21116;-68
2021/01/23 07:07:17;;;;;;;22.30;13.03;;;;;;;1.09;67.78;99964.97;1756123;79;21143;-73
2021/01/23 07:09:54;;;;;;;24.07;12.93;;;;;;;1.17;68.25;99986.17;1756220;79;21572;-72
2021/01/23 07:12:38;;;;;;;20.70;12.73;;;;;;;1.17;68.90;99990.06;1776638;78;21235;-72
2021/01/23 07:15:13;;;;;;;26.55;17.15;;;;;;;1.15;69.16;99989.77;1780784;78;21701;-70
2021/01/23 07:17:45;;;;;;;23.47;14.05;;;;;;;1.19;69.36;99988.70;1751907;80;21661;-70
2021/01/23 07:20:19;;;;;;;24.98;15.05;;;;;;;1.32;69.29;99982.48;1748767;79;21478;-70
2021/01/23 07:22:47;;;;;;;26.52;15.20;;;;;;;1.43;69.05;99986.23;1763560;79;21868;-69
2021/01/23 07:25:16;;;;;;;25.92;14.33;;;;;;;1.54;68.92;99990.88;1751425;80;21630;-68
2021/01/23 07:27:45;;;;;;;25.25;16.40;;;;;;;1.61;68.98;99994.84;1784808;78;21223;-67
2021/01/23 07:30:16;;;;;;;30.02;16.73;;;;;;;1.64;69.04;99989.98;1785564;78;21658;-69
2021/01/23 07:32:47;;;;;;;26.52;15.30;;;;;;;1.73;68.94;99993.87;1786983;78;21183;-69
2021/01/23 07:35:15;;;;;;;24.72;14.63;;;;;;;1.79;68.70;99998.30;1755188;80;22235;-68
2021/01/23 07:37:55;;;;;;;19.90;13.48;;;;;;;1.87;68.62;99999.23;1787480;78;21219;-68
2021/01/23 07:40:26;;;;;;;21.17;13.05;;;;;;;1.96;68.82;99994.85;1766694;79;21219;-69
2021/01/23 07:42:57;;;;;;;20.95;14.13;;;;;;;2.06;68.88;99988.74;1776175;78;21219;-65
2021/01/23 07:45:25;;;;;;;19.50;12.85;;;;;;;2.15;68.76;99978.34;1771079;80;21211;-63
2021/01/23 07:48:00;;;;;;;18.82;13.10;;;;;;;2.26;68.57;99977.34;1774880;79;21208;-64
2021/01/23 07:50:42;;;;;;;17.62;10.93;;;;;;;2.35;68.36;99972.12;1775651;79;21608;-64
2021/01/23 07:53:22;;;;;;;25.30;13.58;;;;;;;2.42;68.20;99969.56;1775383;79;21151;-63
2021/01/23 07:55:52;;;;;;;16.12;11.20;;;;;;;2.46;68.31;99971.57;1772655;79;21499;-63
2021/01/23 07:58:20;;;;;;;15.20;11.00;;;;;;;2.61;68.39;99972.05;1753321;80;21202;-62
2021/01/23 08:00:48;;;;;;;18.50;12.05;;;;;;;2.78;68.04;99972.43;1752082;80;21239;-62
2021/01/23 08:03:16;;;;;;;19.42;11.60;;;;;;;2.89;67.84;99974.00;1751800;80;20993;-68
2021/01/23 08:05:48;;;;;;;20.25;10.98;;;;;;;2.99;67.96;99966.50;1753435;80;21183;-68
2021/01/23 08:08:35;;;;;;;22.62;11.78;;;;;;;3.06;67.87;99971.77;1752925;80;21240;-59
2021/01/23 08:11:06;;;;;;;18.55;11.57;;;;;;;3.13;67.65;99967.89;1751224;80;21212;-60
2021/01/23 08:13:34;;;;;;;19.57;11.90;;;;;;;3.22;67.21;99965.23;1752022;80;22245;-58
2021/01/23 08:16:09;;;;;;;18.75;10.65;;;;;;;3.24;67.25;99979.45;1752147;80;21219;-59
2021/01/23 08:18:37;;;;;;;19.65;12.13;;;;;;;3.23;67.11;99979.06;1755543;80;21163;-58
2021/01/23 08:21:21;;;;;;;16.95;10.58;;;;;;;3.21;67.17;99983.08;1723778;80;21200;-60
2021/01/23 08:23:49;;;;;;;18.15;11.30;;;;;;;3.22;67.32;99989.94;1751788;80;21204;-60
2021/01/23 08:26:18;;;;;;;23.73;12.93;;;;;;;3.30;67.16;100002.52;1729949;81;21262;-59
2021/01/23 08:28:47;;;;;;;18.10;11.60;;;;;;;3.40;66.83;100002.38;1754882;80;21204;-60
2021/01/23 08:31:23;;;;;;;18.27;11.50;;;;;;;3.44;66.66;100007.77;1758443;80;21142;-60
2021/01/23 08:33:54;;;;;;;22.05;13.03;;;;;;;3.43;66.67;100003.52;1745519;80;21168;-59
2021/01/23 08:36:29;;;;;;;21.00;11.88;;;;;;;3.46;66.84;100001.18;1719429;81;21168;-59
2021/01/23 08:39:05;;;;;;;17.42;11.73;;;;;;;3.47;66.68;100001.09;1752941;81;21621;-60
2021/01/23 08:41:33;;;;;;;20.15;11.60;;;;;;;3.46;66.83;99999.88;1751845;80;21191;-59
2021/01/23 08:44:01;;;;;;;19.70;11.53;;;;;;;3.50;66.70;99991.83;1774617;80;21151;-59
2021/01/23 08:46:30;;;;;;;16.90;11.57;;;;;;;3.56;66.61;99996.30;1769060;80;21179;-59
2021/01/23 08:48:59;;;;;;;19.00;11.83;;;;;;;3.60;66.48;99997.78;1725305;81;21769;-59
2021/01/23 08:51:27;;;;;;;18.32;10.13;;;;;;;3.69;66.40;99989.47;1716431;81;21196;-59
2021/01/23 08:53:54;;;;;;;22.00;11.55;;;;;;;3.88;66.22;99990.09;1746173;81;21196;-59
2021/01/23 08:56:22;;;;;;;16.77;11.57;;;;;;;4.01;65.96;99988.88;1740353;80;21216;-59
2021/01/23 08:58:49;;;;;;;18.57;12.50;;;;;;;4.14;65.76;99989.00;1724430;81;21219;-59
2021/01/23 09:01:17;;;;;;;17.75;11.85;;;;;;;4.16;65.53;99984.53;1744466;81;21168;-58
2021/01/23 09:03:45;;;;;;;18.75;10.48;;;;;;;4.19;65.65;99986.13;1721271;81;21204;-62
2021/01/23 09:06:12;;;;;;;17.42;11.10;;;;;;;4.19;65.40;99981.75;1751028;80;21183;-57
2021/01/23 09:08:40;;;;;;;17.07;10.30;;;;;;;4.18;65.27;99974.86;1742902;80;21183;-57
2021/01/23 09:11:07;;;;;;;17.23;9.98;;;;;;;4.17;65.40;99973.20;1726304;81;21203;-58
2021/01/23 09:13:34;;;;;;;16.05;10.25;;;;;;;4.19;65.18;99969.20;1726660;81;21187;-59
2021/01/23 09:16:02;;;;;;;16.37;10.25;;;;;;;4.18;65.20;99968.82;1723930;81;21190;-58
2021/01/23 09:18:32;;;;;;;15.98;9.93;;;;;;;4.18;65.07;99976.16;1718286;81;21219;-59
2021/01/23 09:21:00;;;;;;;17.07;9.98;;;;;;;4.16;65.10;99979.33;1745977;81;22330;-59
2021/01/23 09:23:28;;;;;;;13.75;8.68;;;;;;;4.20;65.10;99978.67;1751743;80;21207;-62
2021/01/23 09:25:55;;;;;;;19.12;10.32;;;;;;;4.31;64.83;99974.14;1739592;81;22435;-59
2021/01/23 09:28:25;;;;;;;16.35;9.88;;;;;;;4.39;64.65;99974.52;1741030;80;21432;-59
2021/01/23 09:30:52;;;;;;;14.40;9.43;;;;;;;4.44;64.65;99968.56;1743900;80;21207;-60
2021/01/23 09:33:19;;;;;;;18.25;10.72;;;;;;;4.46;64.63;99967.99;1725965;81;21144;-60
2021/01/23 09:35:47;;;;;;;15.53;10.75;;;;;;;4.47;64.74;99972.25;1731329;80;21638;-58
2021/01/23 09:38:14;;;;;;;19.77;11.03;;;;;;;4.46;64.66;99972.73;1719662;81;21156;-61
2021/01/23 09:40:44;;;;;;;15.08;9.33;;;;;;;4.46;64.70;99976.64;1748127;81;21223;-59
2021/01/23 09:43:11;;;;;;;17.92;10.48;;;;;;;4.47;64.65;99972.25;1766320;80;21948;-59
2021/01/23 09:45:38;;;;;;;13.13;9.03;;;;;;;4.43;64.54;99969.00;1756528;80;21180;-60
2021/01/23 09:48:07;;;;;;;20.23;9.88;;;;;;;4.35;64.67;99980.83;1716413;81;21135;-60
2021/01/23 09:50:36;;;;;;;15.10;10.28;;;;;;;4.26;65.12;99984.35;1744973;80;21132;-59
2021/01/23 09:53:04;;;;;;;14.73;9.60;;;;;;;4.32;64.93;99980.56;1746901;81;22696;-59
2021/01/23 09:55:32;;;;;;;18.00;9.98;;;;;;;4.46;64.79;99970.13;1727275;81;21223;-59
2021/01/23 09:57:59;;;;;;;22.10;10.53;;;;;;;4.61;64.48;99972.73;1745059;80;21190;-58
2021/01/23 10:00:27;;;;;;;17.02;10.45;;;;;;;4.70;64.38;99969.53;1757843;80;21166;-56
2021/01/23 10:02:54;;;;;;;17.23;9.90;;;;;;;4.75;64.33;99967.95;1704924;83;21486;-56
2021/01/23 10:05:22;;;;;;;17.62;10.05;;;;;;;4.73;64.36;99969.83;1758917;80;22130;-55
2021/01/23 10:07:50;;;;;;;14.60;9.13;;;;;;;4.70;64.29;99970.02;1744077;81;21171;-54
2021/01/23 10:10:18;;;;;;;16.67;10.03;;;;;;;4.67;64.30;99971.02;1752812;81;21108;-56
2021/01/23 10:12:45;;;;;;;18.73;10.98;;;;;;;4.68;64.52;99973.19;1778345;79;21898;-57
2021/01/23 10:15:14;;;;;;;14.93;9.50;;;;;;;4.69;64.52;99974.40;1759492;80;21240;-56
2021/01/23 10:17:41;;;;;;;16.42;9.05;;;;;;;4.68;64.42;99969.28;1732613;81;21382;-57
2021/01/23 10:20:11;;;;;;;17.30;10.43;;;;;;;4.63;64.33;99968.25;1757403;80;21773;-55
2021/01/23 10:22:38;;;;;;;17.60;10.30;;;;;;;4.60;64.60;99969.74;1778576;79;21230;-58
2021/01/23 10:25:08;;;;;;;17.07;10.03;;;;;;;4.65;64.44;99968.98;1776394;80;21215;-56
2021/01/23 10:27:35;;;;;;;16.87;10.63;;;;;;;4.76;64.31;99971.77;1775571;79;21606;-57
2021/01/23 10:30:05;;;;;;;16.87;10.50;;;;;;;4.84;64.34;99977.34;1762723;79;22214;-57
2021/01/23 10:32:34;;;;;;;16.87;10.85;;;;;;;4.94;64.13;99976.31;1745274;79;21220;-56
2021/01/23 10:35:01;;;;;;;16.37;9.10;;;;;;;4.96;64.14;99973.13;1773216;80;21440;-55
2021/01/23 10:40:13;;;;;;;17.60;9.78;;;;;;;5.05;64.00;99960.45;1836791;76;22412;-56
2021/01/23 10:42:41;;;;;;;15.23;9.95;;;;;;;4.96;63.86;99968.36;1801423;78;21612;-57
2021/01/23 10:45:09;;;;;;;15.20;9.65;;;;;;;4.96;63.80;99964.45;1806490;79;21140;-56
2021/01/23 10:47:37;;;;;;;17.37;9.15;;;;;;;4.95;63.78;99960.19;1808231;79;21254;-57
2021/01/23 10:50:06;;;;;;;17.50;10.32;;;;;;;4.93;63.74;99956.37;1806403;79;21136;-56
2021/01/23 10:52:34;;;;;;;15.55;9.78;;;;;;;4.92;63.80;99950.77;1807477;79;21120;-56
2021/01/23 10:55:05;;;;;;;17.45;10.18;;;;;;;4.93;63.60;99947.25;1799590;79;21017;-57
2021/01/23 10:57:35;;;;;;;14.75;8.90;;;;;;;4.87;63.64;99943.72;1799953;78;21197;-57
2021/01/23 11:00:06;;;;;;;13.43;8.98;;;;;;;4.81;63.70;99950.16;1775508;79;21179;-57
2021/01/23 11:02:39;;;;;;;17.25;10.28;;;;;;;4.82;63.68;99952.30;1778122;79;21749;-58
2021/01/23 11:05:09;;;;;;;20.08;10.18;;;;;;;4.94;63.54;99935.89;1803262;77;21151;-56
2021/01/23 11:07:38;;;;;;;16.10;9.75;;;;;;;5.07;63.39;99932.49;1790952;79;21599;-59
2021/01/23 11:10:08;;;;;;;15.20;8.53;;;;;;;5.18;63.22;99930.03;1801039;79;21198;-56
2021/01/23 11:12:36;;;;;;;14.50;9.25;;;;;;;5.22;62.99;99928.89;1804277;78;21675;-57
2021/01/23 11:15:06;;;;;;;18.95;10.65;;;;;;;5.22;63.00;99926.28;1784489;79;21176;-57
2021/01/23 11:17:36;;;;;;;18.37;10.78;;;;;;;5.22;63.00;99924.97;1799890;79;21595;-56
2021/01/23 11:20:07;;;;;;;16.67;10.35;;;;;;;5.28;63.00;99927.64;1808613;77;21662;-56
2021/01/23 11:22:34;;;;;;;19.40;10.43;;;;;;;5.33;62.96;99924.26;1801785;78;21304;-56
2021/01/23 11:25:04;;;;;;;16.12;10.75;;;;;;;5.35;62.82;99929.77;1801826;79;21116;-57
2021/01/23 11:27:32;;;;;;;19.17;11.15;;;;;;;5.31;62.67;99930.05;1803727;79;21104;-56
2021/01/23 11:30:00;;;;;;;20.08;11.18;;;;;;;5.22;62.86;99930.19;1802684;79;21484;-56
2021/01/23 11:32:28;;;;;;;26.50;10.70;;;;;;;5.13;63.09;99928.19;1776197;79;21128;-57
2021/01/23 11:34:56;;;;;;;19.98;11.00;;;;;;;5.05;63.21;99925.24;1772346;79;21171;-56
2021/01/23 11:37:23;;;;;;;20.25;10.88;;;;;;;4.96;63.48;99927.50;1765557;79;21508;-57
2021/01/23 11:39:50;;;;;;;19.65;11.25;;;;;;;4.86;63.75;99931.63;1779310;78;21458;-55
2021/01/23 11:42:18;;;;;;;25.88;13.62;;;;;;;4.79;63.94;99932.93;1751066;78;21195;-55
2021/01/23 11:44:46;;;;;;;21.70;12.78;;;;;;;4.81;64.02;99931.91;1766745;80;21180;-55
2021/01/23 11:47:14;;;;;;;19.00;11.40;;;;;;;4.88;63.95;99928.45;1747200;80;21432;-58